sensor_id;sensor_type;location;lat;lon;timestamp;pressure;altitude;pressure_sealevel;temperature;humidity
78373;BME280;67656;52.074;4.758;2023-07-29T00:04:46;100753.63;;;19.54;100.00
78373;BME280;67656;52.074;4.758;2023-07-29T00:09:47;100750.50;;;19.60;100.00
78373;BME280;67656;52.074;4.758;2023-07-29T00:14:47;100738.44;;;19.68;100.00
78373;BME280;67656;52.074;4.758;2023-07-29T00:19:47;100732.97;;;19.56;100.00
78373;BME280;67656;52.074;4.758;2023-07-29T00:24:54;100732.13;;;19.28;100.00
78373;BME280;67656;52.074;4.758;2023-07-29T00:29:55;100728.06;;;19.36;100.00
78373;BME280;67656;52.074;4.758;2023-07-29T00:34:55;100722.81;;;19.21;100.00
78373;BME280;67656;52.074;4.758;2023-07-29T00:39:56;100735.50;;;18.90;100.00
78373;BME280;67656;52.074;4.758;2023-07-29T00:44:56;100730.91;;;18.92;100.00
78373;BME280;67656;52.074;4.758;2023-07-29T00:49:57;100737.31;;;18.90;100.00
78373;BME280;67656;52.074;4.758;2023-07-29T00:54:58;100723.06;;;18.89;100.00
78373;BME280;67656;52.074;4.758;2023-07-29T01:00:00;100713.25;;;18.90;100.00
78373;BME280;67656;52.074;4.758;2023-07-29T01:05:01;100722.41;;;18.85;100.00
78373;BME280;67656;52.074;4.758;2023-07-29T01:20:19;100713.19;;;18.77;100.00
78373;BME280;67656;52.074;4.758;2023-07-29T01:25:20;100708.47;;;18.80;100.00
78373;BME280;67656;52.074;4.758;2023-07-29T01:30:22;100712.03;;;18.81;100.00
78373;BME280;67656;52.074;4.758;2023-07-29T01:35:34;100710.03;;;18.70;100.00
78373;BME280;67656;52.074;4.758;2023-07-29T01:40:36;100708.25;;;18.70;100.00
78373;BME280;67656;52.074;4.758;2023-07-29T01:45:36;100698.50;;;18.69;100.00
78373;BME280;67656;52.074;4.758;2023-07-29T01:50:37;100703.94;;;18.68;100.00
78373;BME280;67656;52.074;4.758;2023-07-29T01:55:38;100703.53;;;18.74;100.00
78373;BME280;67656;52.074;4.758;2023-07-29T02:00:39;100686.75;;;18.72;100.00
78373;BME280;67656;52.074;4.758;2023-07-29T02:05:39;100682.84;;;18.63;100.00
78373;BME280;67656;52.074;4.758;2023-07-29T02:10:39;100686.00;;;18.55;100.00
78373;BME280;67656;52.074;4.758;2023-07-29T02:15:40;100678.94;;;18.54;100.00
78373;BME280;67656;52.074;4.758;2023-07-29T02:20:40;100681.06;;;18.49;100.00
78373;BME280;67656;52.074;4.758;2023-07-29T02:25:41;100673.31;;;18.59;100.00
78373;BME280;67656;52.074;4.758;2023-07-29T02:30:42;100666.47;;;18.40;100.00
78373;BME280;67656;52.074;4.758;2023-07-29T02:35:42;100675.84;;;18.33;100.00
78373;BME280;67656;52.074;4.758;2023-07-29T02:40:43;100680.97;;;18.36;100.00
78373;BME280;67656;52.074;4.758;2023-07-29T02:45:43;100650.09;;;18.32;100.00
78373;BME280;67656;52.074;4.758;2023-07-29T02:50:43;100652.00;;;18.30;100.00
78373;BME280;67656;52.074;4.758;2023-07-29T02:55:44;100638.03;;;18.39;100.00
78373;BME280;67656;52.074;4.758;2023-07-29T03:00:44;100641.13;;;18.33;100.00
78373;BME280;67656;52.074;4.758;2023-07-29T03:05:45;100632.88;;;18.36;100.00
78373;BME280;67656;52.074;4.758;2023-07-29T03:10:45;100646.09;;;18.25;100.00
78373;BME280;67656;52.074;4.758;2023-07-29T03:15:46;100655.03;;;18.24;100.00
78373;BME280;67656;52.074;4.758;2023-07-29T03:20:48;100656.88;;;18.09;100.00
78373;BME280;67656;52.074;4.758;2023-07-29T03:25:49;100650.94;;;18.18;100.00
78373;BME280;67656;52.074;4.758;2023-07-29T03:30:50;100656.75;;;17.96;100.00
78373;BME280;67656;52.074;4.758;2023-07-29T03:35:50;100667.41;;;17.96;100.00
78373;BME280;67656;52.074;4.758;2023-07-29T03:40:51;100661.34;;;18.08;100.00
78373;BME280;67656;52.074;4.758;2023-07-29T03:45:51;100668.03;;;18.16;100.00
78373;BME280;67656;52.074;4.758;2023-07-29T03:50:51;100650.09;;;18.18;100.00
78373;BME280;67656;52.074;4.758;2023-07-29T03:55:52;100649.72;;;18.09;100.00
78373;BME280;67656;52.074;4.758;2023-07-29T04:00:52;100666.69;;;18.08;100.00
78373;BME280;67656;52.074;4.758;2023-07-29T04:05:54;100658.66;;;18.23;100.00
78373;BME280;67656;52.074;4.758;2023-07-29T04:10:54;100666.19;;;18.31;100.00
78373;BME280;67656;52.074;4.758;2023-07-29T04:15:55;100665.41;;;18.43;100.00
78373;BME280;67656;52.074;4.758;2023-07-29T04:20:55;100667.41;;;18.54;100.00
78373;BME280;67656;52.074;4.758;2023-07-29T04:25:56;100659.06;;;18.31;100.00
78373;BME280;67656;52.074;4.758;2023-07-29T04:30:56;100664.19;;;18.34;100.00
78373;BME280;67656;52.074;4.758;2023-07-29T04:35:57;100671.25;;;18.35;100.00
78373;BME280;67656;52.074;4.758;2023-07-29T04:40:57;100663.81;;;18.26;100.00
78373;BME280;67656;52.074;4.758;2023-07-29T04:45:58;100669.03;;;18.42;100.00
78373;BME280;67656;52.074;4.758;2023-07-29T04:50:58;100675.47;;;18.25;100.00
78373;BME280;67656;52.074;4.758;2023-07-29T04:55:59;100683.28;;;18.42;100.00
78373;BME280;67656;52.074;4.758;2023-07-29T05:00:59;100676.38;;;18.53;100.00
78373;BME280;67656;52.074;4.758;2023-07-29T05:06:00;100667.91;;;18.73;100.00
78373;BME280;67656;52.074;4.758;2023-07-29T05:11:02;100677.66;;;18.75;100.00
78373;BME280;67656;52.074;4.758;2023-07-29T05:16:02;100679.38;;;18.76;100.00
78373;BME280;67656;52.074;4.758;2023-07-29T05:21:03;100679.81;;;18.55;100.00
78373;BME280;67656;52.074;4.758;2023-07-29T05:26:03;100665.69;;;18.95;100.00
78373;BME280;67656;52.074;4.758;2023-07-29T05:31:04;100665.25;;;19.28;100.00
78373;BME280;67656;52.074;4.758;2023-07-29T05:36:05;100662.25;;;19.20;100.00
78373;BME280;67656;52.074;4.758;2023-07-29T05:41:05;100652.34;;;19.61;100.00
78373;BME280;67656;52.074;4.758;2023-07-29T05:46:05;100653.41;;;19.71;100.00
78373;BME280;67656;52.074;4.758;2023-07-29T05:51:06;100660.72;;;20.08;100.00
78373;BME280;67656;52.074;4.758;2023-07-29T05:56:07;100652.59;;;19.97;100.00
78373;BME280;67656;52.074;4.758;2023-07-29T06:01:07;100657.28;;;19.93;100.00
78373;BME280;67656;52.074;4.758;2023-07-29T06:06:08;100668.50;;;19.85;100.00
78373;BME280;67656;52.074;4.758;2023-07-29T06:11:08;100678.69;;;19.80;100.00
78373;BME280;67656;52.074;4.758;2023-07-29T06:16:09;100678.13;;;19.75;100.00
78373;BME280;67656;52.074;4.758;2023-07-29T06:21:11;100675.59;;;19.86;100.00
78373;BME280;67656;52.074;4.758;2023-07-29T06:26:12;100677.88;;;19.92;100.00
78373;BME280;67656;52.074;4.758;2023-07-29T06:31:12;100676.53;;;20.24;100.00
78373;BME280;67656;52.074;4.758;2023-07-29T06:36:12;100665.63;;;20.14;100.00
78373;BME280;67656;52.074;4.758;2023-07-29T06:41:13;100674.00;;;20.09;100.00
78373;BME280;67656;52.074;4.758;2023-07-29T06:46:13;100674.53;;;20.02;100.00
78373;BME280;67656;52.074;4.758;2023-07-29T06:51:14;100677.38;;;20.24;100.00
78373;BME280;67656;52.074;4.758;2023-07-29T06:56:14;100681.91;;;20.61;100.00
78373;BME280;67656;52.074;4.758;2023-07-29T07:01:15;100683.41;;;20.65;100.00
78373;BME280;67656;52.074;4.758;2023-07-29T07:06:15;100676.63;;;20.85;100.00
78373;BME280;67656;52.074;4.758;2023-07-29T07:11:16;100676.53;;;20.98;100.00
78373;BME280;67656;52.074;4.758;2023-07-29T07:16:16;100671.31;;;20.97;100.00
78373;BME280;67656;52.074;4.758;2023-07-29T07:21:16;100660.28;;;20.89;100.00
78373;BME280;67656;52.074;4.758;2023-07-29T07:26:17;100674.69;;;20.99;100.00
78373;BME280;67656;52.074;4.758;2023-07-29T07:31:18;100683.59;;;21.24;100.00
78373;BME280;67656;52.074;4.758;2023-07-29T07:36:18;100667.97;;;23.11;100.00
78373;BME280;67656;52.074;4.758;2023-07-29T07:41:18;100672.81;;;22.18;100.00
78373;BME280;67656;52.074;4.758;2023-07-29T07:46:19;100680.84;;;22.29;100.00
78373;BME280;67656;52.074;4.758;2023-07-29T07:51:19;100672.31;;;23.35;100.00
78373;BME280;67656;52.074;4.758;2023-07-29T07:56:20;100669.56;;;23.77;100.00
78373;BME280;67656;52.074;4.758;2023-07-29T08:01:20;100697.78;;;23.52;100.00
78373;BME280;67656;52.074;4.758;2023-07-29T08:06:21;100685.25;;;22.19;100.00
78373;BME280;67656;52.074;4.758;2023-07-29T08:11:21;100695.88;;;21.51;100.00
78373;BME280;67656;52.074;4.758;2023-07-29T08:16:22;100696.47;;;22.69;100.00
78373;BME280;67656;52.074;4.758;2023-07-29T08:21:22;100690.47;;;24.06;100.00
78373;BME280;67656;52.074;4.758;2023-07-29T08:26:22;100693.00;;;22.90;100.00
78373;BME280;67656;52.074;4.758;2023-07-29T08:31:23;100697.97;;;23.39;100.00
78373;BME280;67656;52.074;4.758;2023-07-29T08:36:23;100688.53;;;23.00;100.00
78373;BME280;67656;52.074;4.758;2023-07-29T08:42:02;100699.81;;;23.59;100.00
78373;BME280;67656;52.074;4.758;2023-07-29T08:47:04;100698.50;;;23.33;100.00
78373;BME280;67656;52.074;4.758;2023-07-29T08:52:05;100706.38;;;23.13;100.00
78373;BME280;67656;52.074;4.758;2023-07-29T08:57:07;100695.56;;;22.92;100.00
78373;BME280;67656;52.074;4.758;2023-07-29T09:02:07;100708.84;;;21.92;100.00
78373;BME280;67656;52.074;4.758;2023-07-29T09:07:08;100709.94;;;22.35;100.00
78373;BME280;67656;52.074;4.758;2023-07-29T09:12:09;100710.53;;;21.93;100.00
78373;BME280;67656;52.074;4.758;2023-07-29T09:17:09;100709.44;;;21.96;100.00
78373;BME280;67656;52.074;4.758;2023-07-29T09:22:18;100712.00;;;21.98;100.00
78373;BME280;67656;52.074;4.758;2023-07-29T09:27:26;100721.97;;;21.48;100.00
78373;BME280;67656;52.074;4.758;2023-07-29T09:32:26;100739.38;;;20.70;100.00
78373;BME280;67656;52.074;4.758;2023-07-29T09:37:27;100739.13;;;20.23;100.00
78373;BME280;67656;52.074;4.758;2023-07-29T09:42:27;100749.84;;;20.10;100.00
78373;BME280;67656;52.074;4.758;2023-07-29T09:47:27;100746.44;;;20.34;100.00
78373;BME280;67656;52.074;4.758;2023-07-29T09:52:28;100747.13;;;20.99;100.00
78373;BME280;67656;52.074;4.758;2023-07-29T09:57:29;100731.91;;;21.84;100.00
78373;BME280;67656;52.074;4.758;2023-07-29T10:02:30;100741.06;;;21.57;100.00
78373;BME280;67656;52.074;4.758;2023-07-29T10:07:31;100724.25;;;21.30;100.00
78373;BME280;67656;52.074;4.758;2023-07-29T10:12:32;100730.53;;;21.42;100.00
78373;BME280;67656;52.074;4.758;2023-07-29T10:17:35;100728.34;;;21.94;100.00
78373;BME280;67656;52.074;4.758;2023-07-29T10:22:40;100732.28;;;21.55;100.00
78373;BME280;67656;52.074;4.758;2023-07-29T10:27:47;100737.59;;;21.43;100.00
78373;BME280;67656;52.074;4.758;2023-07-29T10:32:48;100745.44;;;21.46;100.00
78373;BME280;67656;52.074;4.758;2023-07-29T10:37:50;100753.16;;;21.02;100.00
78373;BME280;67656;52.074;4.758;2023-07-29T10:43:10;100756.88;;;20.63;100.00
78373;BME280;67656;52.074;4.758;2023-07-29T10:48:12;100751.09;;;20.56;100.00
78373;BME280;67656;52.074;4.758;2023-07-29T10:53:16;100754.94;;;20.65;100.00
78373;BME280;67656;52.074;4.758;2023-07-29T10:58:16;100757.66;;;20.39;100.00
78373;BME280;67656;52.074;4.758;2023-07-29T11:03:16;100774.72;;;20.38;100.00
78373;BME280;67656;52.074;4.758;2023-07-29T11:13:20;100762.75;;;20.81;100.00
78373;BME280;67656;52.074;4.758;2023-07-29T11:18:21;100758.44;;;21.64;100.00
78373;BME280;67656;52.074;4.758;2023-07-29T11:23:27;100743.34;;;23.11;100.00
78373;BME280;67656;52.074;4.758;2023-07-29T11:28:28;100731.22;;;23.49;100.00
78373;BME280;67656;52.074;4.758;2023-07-29T11:33:29;100737.06;;;22.78;100.00
78373;BME280;67656;52.074;4.758;2023-07-29T11:38:29;100736.22;;;23.75;100.00
78373;BME280;67656;52.074;4.758;2023-07-29T11:43:30;100729.94;;;23.32;100.00
78373;BME280;67656;52.074;4.758;2023-07-29T11:48:34;100736.13;;;22.56;100.00
78373;BME280;67656;52.074;4.758;2023-07-29T11:53:35;100739.28;;;22.50;100.00
78373;BME280;67656;52.074;4.758;2023-07-29T11:58:37;100748.38;;;21.55;100.00
78373;BME280;67656;52.074;4.758;2023-07-29T12:03:37;100756.88;;;21.48;100.00
78373;BME280;67656;52.074;4.758;2023-07-29T12:08:38;100744.13;;;21.52;100.00
78373;BME280;67656;52.074;4.758;2023-07-29T12:13:38;100743.94;;;22.36;100.00
78373;BME280;67656;52.074;4.758;2023-07-29T12:18:41;100731.19;;;22.84;100.00
78373;BME280;67656;52.074;4.758;2023-07-29T12:23:42;100716.78;;;23.50;100.00
78373;BME280;67656;52.074;4.758;2023-07-29T12:28:46;100720.28;;;25.15;100.00
78373;BME280;67656;52.074;4.758;2023-07-29T12:33:47;100718.31;;;24.16;100.00
78373;BME280;67656;52.074;4.758;2023-07-29T12:38:47;100700.72;;;24.12;100.00
78373;BME280;67656;52.074;4.758;2023-07-29T12:43:48;100699.47;;;24.67;100.00
78373;BME280;67656;52.074;4.758;2023-07-29T12:48:48;100709.53;;;23.29;100.00
78373;BME280;67656;52.074;4.758;2023-07-29T12:53:48;100719.00;;;23.87;100.00
78373;BME280;67656;52.074;4.758;2023-07-29T12:58:49;100705.97;;;25.25;100.00
78373;BME280;67656;52.074;4.758;2023-07-29T13:03:49;100709.19;;;24.79;100.00
78373;BME280;67656;52.074;4.758;2023-07-29T13:08:50;100714.13;;;23.60;100.00
78373;BME280;67656;52.074;4.758;2023-07-29T13:13:50;100704.91;;;24.77;100.00
78373;BME280;67656;52.074;4.758;2023-07-29T13:18:51;100702.94;;;24.79;100.00
78373;BME280;67656;52.074;4.758;2023-07-29T13:23:55;100712.75;;;24.08;100.00
78373;BME280;67656;52.074;4.758;2023-07-29T13:28:55;100720.50;;;23.80;100.00
78373;BME280;67656;52.074;4.758;2023-07-29T13:33:55;100708.94;;;25.22;100.00
78373;BME280;67656;52.074;4.758;2023-07-29T13:38:56;100691.75;;;25.23;100.00
78373;BME280;67656;52.074;4.758;2023-07-29T13:43:56;100685.19;;;26.02;100.00
78373;BME280;67656;52.074;4.758;2023-07-29T13:48:57;100689.91;;;25.13;100.00
78373;BME280;67656;52.074;4.758;2023-07-29T13:53:57;100703.09;;;24.87;100.00
78373;BME280;67656;52.074;4.758;2023-07-29T13:58:58;100703.09;;;25.75;100.00
78373;BME280;67656;52.074;4.758;2023-07-29T14:03:58;100704.47;;;24.72;100.00
78373;BME280;67656;52.074;4.758;2023-07-29T14:08:59;100709.50;;;24.96;100.00
78373;BME280;67656;52.074;4.758;2023-07-29T14:13:59;100709.75;;;24.73;100.00
78373;BME280;67656;52.074;4.758;2023-07-29T14:18:59;100699.84;;;25.52;100.00
78373;BME280;67656;52.074;4.758;2023-07-29T14:24:00;100708.22;;;25.10;100.00
78373;BME280;67656;52.074;4.758;2023-07-29T14:29:00;100708.13;;;24.61;100.00
78373;BME280;67656;52.074;4.758;2023-07-29T14:34:01;100694.44;;;25.52;100.00
78373;BME280;67656;52.074;4.758;2023-07-29T14:39:01;100695.28;;;25.33;100.00
78373;BME280;67656;52.074;4.758;2023-07-29T14:44:02;100696.16;;;25.63;100.00
78373;BME280;67656;52.074;4.758;2023-07-29T14:49:02;100697.44;;;23.87;100.00
78373;BME280;67656;52.074;4.758;2023-07-29T14:54:02;100708.88;;;24.32;100.00
78373;BME280;67656;52.074;4.758;2023-07-29T14:59:03;100696.53;;;24.70;100.00
78373;BME280;67656;52.074;4.758;2023-07-29T15:04:03;100705.97;;;25.25;100.00
78373;BME280;67656;52.074;4.758;2023-07-29T15:09:04;100715.56;;;24.78;100.00
78373;BME280;67656;52.074;4.758;2023-07-29T15:14:07;100698.16;;;25.32;100.00
78373;BME280;67656;52.074;4.758;2023-07-29T15:19:07;100693.03;;;24.99;100.00
78373;BME280;67656;52.074;4.758;2023-07-29T15:24:08;100688.38;;;24.50;100.00
78373;BME280;67656;52.074;4.758;2023-07-29T15:29:08;100694.88;;;25.08;100.00
78373;BME280;67656;52.074;4.758;2023-07-29T15:34:09;100684.94;;;24.48;100.00
78373;BME280;67656;52.074;4.758;2023-07-29T15:39:09;100686.94;;;24.46;100.00
78373;BME280;67656;52.074;4.758;2023-07-29T15:44:09;100682.38;;;24.06;100.00
78373;BME280;67656;52.074;4.758;2023-07-29T15:49:10;100685.34;;;25.04;100.00
78373;BME280;67656;52.074;4.758;2023-07-29T15:54:10;100685.81;;;25.86;100.00
78373;BME280;67656;52.074;4.758;2023-07-29T15:59:11;100697.25;;;24.72;100.00
78373;BME280;67656;52.074;4.758;2023-07-29T16:04:11;100681.94;;;25.41;100.00
78373;BME280;67656;52.074;4.758;2023-07-29T16:09:12;100681.84;;;24.53;100.00
78373;BME280;67656;52.074;4.758;2023-07-29T16:14:12;100688.19;;;25.12;100.00
78373;BME280;67656;52.074;4.758;2023-07-29T16:19:13;100681.75;;;24.33;100.00
78373;BME280;67656;52.074;4.758;2023-07-29T16:24:13;100691.72;;;24.83;100.00
78373;BME280;67656;52.074;4.758;2023-07-29T16:29:14;100692.81;;;24.20;100.00
78373;BME280;67656;52.074;4.758;2023-07-29T16:34:14;100695.69;;;24.38;100.00
78373;BME280;67656;52.074;4.758;2023-07-29T16:39:15;100696.22;;;24.32;100.00
78373;BME280;67656;52.074;4.758;2023-07-29T16:44:15;100692.91;;;24.50;100.00
78373;BME280;67656;52.074;4.758;2023-07-29T16:49:16;100699.72;;;24.13;100.00
78373;BME280;67656;52.074;4.758;2023-07-29T16:54:16;100706.06;;;23.81;100.00
78373;BME280;67656;52.074;4.758;2023-07-29T16:59:17;100698.22;;;23.99;100.00
78373;BME280;67656;52.074;4.758;2023-07-29T17:04:17;100709.53;;;23.72;100.00
78373;BME280;67656;52.074;4.758;2023-07-29T17:09:18;100721.16;;;23.30;100.00
78373;BME280;67656;52.074;4.758;2023-07-29T17:14:18;100717.59;;;23.29;100.00
78373;BME280;67656;52.074;4.758;2023-07-29T17:19:19;100724.69;;;23.30;100.00
78373;BME280;67656;52.074;4.758;2023-07-29T17:24:19;100724.06;;;23.81;100.00
78373;BME280;67656;52.074;4.758;2023-07-29T17:29:19;100724.53;;;22.99;100.00
78373;BME280;67656;52.074;4.758;2023-07-29T17:34:20;100739.25;;;22.84;100.00
78373;BME280;67656;52.074;4.758;2023-07-29T17:39:20;100733.31;;;23.01;100.00
78373;BME280;67656;52.074;4.758;2023-07-29T17:44:21;100730.00;;;22.43;100.00
78373;BME280;67656;52.074;4.758;2023-07-29T17:49:21;100734.91;;;22.60;100.00
78373;BME280;67656;52.074;4.758;2023-07-29T17:54:22;100732.91;;;22.62;100.00
78373;BME280;67656;52.074;4.758;2023-07-29T17:59:22;100731.09;;;22.51;100.00
78373;BME280;67656;52.074;4.758;2023-07-29T18:04:23;100730.94;;;21.96;100.00
78373;BME280;67656;52.074;4.758;2023-07-29T18:09:23;100731.16;;;21.82;100.00
78373;BME280;67656;52.074;4.758;2023-07-29T18:14:24;100747.75;;;21.87;100.00
78373;BME280;67656;52.074;4.758;2023-07-29T18:19:24;100736.38;;;21.72;100.00
78373;BME280;67656;52.074;4.758;2023-07-29T18:24:25;100738.56;;;21.42;100.00
78373;BME280;67656;52.074;4.758;2023-07-29T18:29:25;100739.50;;;21.30;100.00
78373;BME280;67656;52.074;4.758;2023-07-29T18:34:26;100750.47;;;21.27;100.00
78373;BME280;67656;52.074;4.758;2023-07-29T18:39:26;100755.81;;;21.27;100.00
78373;BME280;67656;52.074;4.758;2023-07-29T18:44:27;100753.19;;;20.90;100.00
78373;BME280;67656;52.074;4.758;2023-07-29T18:49:27;100767.81;;;20.85;100.00
78373;BME280;67656;52.074;4.758;2023-07-29T18:54:28;100768.75;;;20.71;100.00
78373;BME280;67656;52.074;4.758;2023-07-29T18:59:28;100772.13;;;20.49;100.00
78373;BME280;67656;52.074;4.758;2023-07-29T19:04:28;100778.09;;;20.66;100.00
78373;BME280;67656;52.074;4.758;2023-07-29T19:09:29;100782.63;;;20.52;100.00
78373;BME280;67656;52.074;4.758;2023-07-29T19:14:29;100780.31;;;20.35;100.00
78373;BME280;67656;52.074;4.758;2023-07-29T19:19:30;100774.94;;;20.35;100.00
78373;BME280;67656;52.074;4.758;2023-07-29T19:24:30;100775.16;;;20.32;100.00
78373;BME280;67656;52.074;4.758;2023-07-29T19:29:31;100790.56;;;19.89;100.00
78373;BME280;67656;52.074;4.758;2023-07-29T19:34:31;100799.19;;;19.80;100.00
78373;BME280;67656;52.074;4.758;2023-07-29T19:39:31;100805.06;;;19.85;100.00
78373;BME280;67656;52.074;4.758;2023-07-29T19:44:32;100797.53;;;19.64;100.00
78373;BME280;67656;52.074;4.758;2023-07-29T19:49:32;100818.75;;;19.68;100.00
78373;BME280;67656;52.074;4.758;2023-07-29T19:54:33;100819.28;;;19.60;100.00
78373;BME280;67656;52.074;4.758;2023-07-29T19:59:33;100824.19;;;19.53;100.00
78373;BME280;67656;52.074;4.758;2023-07-29T20:04:33;100832.00;;;19.56;100.00
78373;BME280;67656;52.074;4.758;2023-07-29T20:09:34;100831.94;;;19.43;100.00
78373;BME280;67656;52.074;4.758;2023-07-29T20:14:34;100830.91;;;19.46;100.00
78373;BME280;67656;52.074;4.758;2023-07-29T20:19:35;100832.66;;;19.32;100.00
78373;BME280;67656;52.074;4.758;2023-07-29T20:24:35;100836.34;;;19.17;100.00
78373;BME280;67656;52.074;4.758;2023-07-29T20:29:35;100836.47;;;19.01;100.00
78373;BME280;67656;52.074;4.758;2023-07-29T20:34:36;100841.31;;;19.09;100.00
78373;BME280;67656;52.074;4.758;2023-07-29T20:39:36;100832.16;;;18.98;100.00
78373;BME280;67656;52.074;4.758;2023-07-29T20:44:37;100823.53;;;18.93;100.00
78373;BME280;67656;52.074;4.758;2023-07-29T20:49:37;100839.44;;;18.96;100.00
78373;BME280;67656;52.074;4.758;2023-07-29T20:54:38;100832.03;;;18.85;100.00
78373;BME280;67656;52.074;4.758;2023-07-29T20:59:38;100836.63;;;18.83;100.00
78373;BME280;67656;52.074;4.758;2023-07-29T21:04:38;100841.22;;;18.81;100.00
78373;BME280;67656;52.074;4.758;2023-07-29T21:09:39;100831.63;;;18.92;100.00
78373;BME280;67656;52.074;4.758;2023-07-29T21:14:39;100836.91;;;18.79;100.00
78373;BME280;67656;52.074;4.758;2023-07-29T21:19:39;100837.41;;;18.85;100.00
78373;BME280;67656;52.074;4.758;2023-07-29T21:24:41;100838.94;;;18.75;100.00
78373;BME280;67656;52.074;4.758;2023-07-29T21:29:41;100834.63;;;18.87;100.00
78373;BME280;67656;52.074;4.758;2023-07-29T21:34:42;100842.44;;;18.76;100.00
78373;BME280;67656;52.074;4.758;2023-07-29T21:39:42;100837.03;;;18.48;100.00
78373;BME280;67656;52.074;4.758;2023-07-29T21:44:43;100838.63;;;18.36;100.00
78373;BME280;67656;52.074;4.758;2023-07-29T21:49:43;100845.41;;;18.42;100.00
78373;BME280;67656;52.074;4.758;2023-07-29T21:54:43;100831.00;;;18.30;100.00
78373;BME280;67656;52.074;4.758;2023-07-29T21:59:44;100829.09;;;18.32;100.00
78373;BME280;67656;52.074;4.758;2023-07-29T22:04:44;100826.81;;;18.40;100.00
78373;BME280;67656;52.074;4.758;2023-07-29T22:09:45;100836.66;;;18.09;100.00
78373;BME280;67656;52.074;4.758;2023-07-29T22:14:45;100828.38;;;18.29;100.00
78373;BME280;67656;52.074;4.758;2023-07-29T22:19:46;100834.78;;;18.26;100.00
78373;BME280;67656;52.074;4.758;2023-07-29T22:24:46;100830.78;;;18.19;100.00
78373;BME280;67656;52.074;4.758;2023-07-29T22:29:46;100819.50;;;18.14;100.00
78373;BME280;67656;52.074;4.758;2023-07-29T22:34:47;100822.31;;;18.41;100.00
78373;BME280;67656;52.074;4.758;2023-07-29T22:39:47;100827.38;;;18.31;100.00
78373;BME280;67656;52.074;4.758;2023-07-29T22:44:47;100829.28;;;18.29;100.00
78373;BME280;67656;52.074;4.758;2023-07-29T22:49:48;100837.25;;;18.15;100.00
78373;BME280;67656;52.074;4.758;2023-07-29T22:54:48;100854.50;;;18.09;100.00
78373;BME280;67656;52.074;4.758;2023-07-29T22:59:49;100843.44;;;18.15;100.00
78373;BME280;67656;52.074;4.758;2023-07-29T23:04:49;100846.59;;;18.07;100.00
78373;BME280;67656;52.074;4.758;2023-07-29T23:09:50;100848.66;;;18.02;100.00
78373;BME280;67656;52.074;4.758;2023-07-29T23:14:50;100856.91;;;18.14;100.00
78373;BME280;67656;52.074;4.758;2023-07-29T23:19:50;100863.31;;;17.95;100.00
78373;BME280;67656;52.074;4.758;2023-07-29T23:24:51;100863.16;;;17.98;100.00
78373;BME280;67656;52.074;4.758;2023-07-29T23:29:51;100860.53;;;17.96;100.00
78373;BME280;67656;52.074;4.758;2023-07-29T23:34:52;100850.22;;;17.90;100.00
78373;BME280;67656;52.074;4.758;2023-07-29T23:39:52;100873.66;;;18.01;100.00
78373;BME280;67656;52.074;4.758;2023-07-29T23:44:52;100875.06;;;17.76;100.00
78373;BME280;67656;52.074;4.758;2023-07-29T23:49:53;100879.19;;;17.82;100.00
78373;BME280;67656;52.074;4.758;2023-07-29T23:54:53;100877.47;;;17.65;100.00
78373;BME280;67656;52.074;4.758;2023-07-29T23:59:54;100885.38;;;17.66;100.00
